Terminal Aerodrome Forecast
Issued by NWS Corpus Christi, TX

Home | Current Version | Previous Version | Text Only | Print | Product List | Glossary On
Versions: 1 2 3 4 5 6 7 8 9 10 11 12 13 14 15 16 17 18 19 20
416
FTUS44 KCRP 282340
TAFVCT
TAF
KVCT 282340Z 2900/2924 12014KT 5SM HZ BKN020 BKN030
     FM290300 13011KT 4SM BR SCT008 OVC015
      TEMPO 2909/2913 2SM BR BKN008
     FM291600 15017KT 6SM HZ SCT015 BKN025
     FM291900 15017G25KT P6SM SCT025 BKN035=

USA.gov is the U.S. government's official web portal to all federal, state and local government web resources and services.